createdAt,value
2019-01-05T00:00:01.311Z,102797.17
2019-01-05T00:03:11.499Z,102795.58
2019-01-05T00:06:04.508Z,102790.57
2019-01-05T00:09:00.548Z,102797.64
2019-01-05T00:12:08.151Z,102793.83
2019-01-05T00:15:01.658Z,102782.52
2019-01-05T00:18:03.273Z,102786.96
2019-01-05T00:21:06.082Z,102782.72
2019-01-05T00:24:01.627Z,102781.52
2019-01-05T00:27:00.207Z,102773.16
2019-01-05T00:30:01.896Z,102772.22
2019-01-05T00:33:04.844Z,102768.87
2019-01-05T00:36:31.367Z,102769.25
2019-01-05T00:39:28.730Z,102770.15
2019-01-05T00:42:19.880Z,102755.66
2019-01-05T00:45:09.883Z,102760.52
2019-01-05T00:48:01.725Z,102761.95
2019-01-05T00:51:11.467Z,102751.78
2019-01-05T00:54:11.680Z,102768.94
2019-01-05T00:57:16.028Z,102764.59
2019-01-05T01:03:36.475Z,102764.98
2019-01-05T01:06:39.159Z,102771.12
2019-01-05T01:09:32.026Z,102771.33
2019-01-05T01:12:34.890Z,102767.27
2019-01-05T01:15:24.764Z,102766.15
2019-01-05T01:18:14.128Z,102765.36
2019-01-05T01:21:05.259Z,102771.55
2019-01-05T01:23:58.232Z,102774.97
2019-01-05T01:27:16.081Z,102770.61
2019-01-05T01:30:09.424Z,102773.91
2019-01-05T01:32:59.836Z,102776.02
2019-01-05T01:35:48.845Z,102778.90
2019-01-05T01:39:08.132Z,102766.88
2019-01-05T01:42:04.153Z,102768.09
2019-01-05T01:44:57.606Z,102772.71
2019-01-05T01:47:57.360Z,102770.97
2019-01-05T01:50:53.815Z,102771.96
2019-01-05T01:53:43.334Z,102772.71
2019-01-05T01:56:56.107Z,102777.91
2019-01-05T02:00:00.514Z,102770.61
2019-01-05T02:03:08.070Z,102771.08
2019-01-05T02:06:04.674Z,102754.95
2019-01-05T02:09:02.074Z,102755.06
2019-01-05T02:12:01.874Z,102753.83
2019-01-05T02:14:59.227Z,102749.78
2019-01-05T02:18:00.512Z,102751.47
2019-01-05T02:21:14.850Z,102753.92
2019-01-05T02:24:40.947Z,102746.92
2019-01-05T02:28:16.078Z,102739.91
2019-01-05T02:31:43.727Z,102737.38
2019-01-05T02:35:11.234Z,102725.95
2019-01-05T02:39:10.263Z,102719.78
2019-01-05T02:42:24.343Z,102716.43
2019-01-05T02:46:01.162Z,102717.86
2019-01-05T02:49:22.169Z,102706.34
2019-01-05T02:56:46.586Z,102686.78
2019-01-05T03:00:06.051Z,102680.03
2019-01-05T03:07:33.676Z,102676.30
2019-01-05T03:11:05.074Z,102665.23
2019-01-05T03:14:51.082Z,102660.98
2019-01-05T03:18:36.252Z,102655.08
2019-01-05T03:22:27.559Z,102655.52
2019-01-05T03:25:53.993Z,102650.91
2019-01-05T03:29:56.137Z,102647.13
2019-01-05T03:33:54.140Z,102650.69
2019-01-05T03:37:26.639Z,102640.59
2019-01-05T03:40:51.914Z,102637.13
2019-01-05T03:44:37.340Z,102633.83
2019-01-05T03:48:40.241Z,102624.73
2019-01-05T03:52:12.152Z,102612.33
2019-01-05T03:55:51.222Z,102602.39
2019-01-05T03:59:45.152Z,102593.63
2019-01-05T04:03:20.048Z,102589.73
2019-01-05T04:06:45.936Z,102580.53
2019-01-05T04:10:37.615Z,102576.98
2019-01-05T04:14:20.232Z,102577.14
2019-01-05T04:17:57.775Z,102576.89
2019-01-05T04:21:30.877Z,102568.08
2019-01-05T04:24:52.488Z,102571.30
2019-01-05T04:28:25.441Z,102573.41
2019-01-05T04:32:23.530Z,102565.02
2019-01-05T04:35:57.137Z,102558.41
2019-01-05T04:39:32.118Z,102544.95
2019-01-05T04:43:10.197Z,102540.33
2019-01-05T04:46:25.582Z,102537.47
2019-01-05T04:50:02.798Z,102540.12
2019-01-05T04:53:37.993Z,102529.95
2019-01-05T04:57:02.364Z,102534.64
2019-01-05T05:00:34.398Z,102541.48
2019-01-05T05:04:12.934Z,102539.59
2019-01-05T05:07:30.535Z,102521.23
2019-01-05T05:10:56.006Z,102523.27
2019-01-05T05:14:33.086Z,102522.78
2019-01-05T05:17:58.361Z,102516.07
2019-01-05T05:21:31.855Z,102510.67
2019-01-05T05:28:29.414Z,102504.91
2019-01-05T05:31:55.129Z,102504.22
2019-01-05T05:35:36.226Z,102506.31
2019-01-05T05:39:01.607Z,102497.56
2019-01-05T05:42:33.294Z,102494.64
2019-01-05T05:46:27.203Z,102497.15
2019-01-05T05:49:57.250Z,102499.16
2019-01-05T05:57:06.062Z,102501.83
2019-01-05T06:01:05.841Z,102509.08
2019-01-05T06:04:30.874Z,102500.09
2019-01-05T06:08:06.348Z,102511.11
2019-01-05T06:11:39.433Z,102506.39
2019-01-05T06:15:20.967Z,102499.03
2019-01-05T06:18:49.980Z,102500.30
2019-01-05T06:22:15.734Z,102505.25
2019-01-05T06:25:52.277Z,102499.46
2019-01-05T06:29:40.159Z,102488.69
2019-01-05T06:33:11.096Z,102482.73
2019-01-05T06:36:39.801Z,102489.78
2019-01-05T06:40:31.105Z,102493.66
2019-01-05T06:44:13.681Z,102491.52
2019-01-05T06:48:09.552Z,102494.93
2019-01-05T06:51:57.254Z,102504.99
2019-01-05T06:55:24.641Z,102507.16
2019-01-05T06:58:39.832Z,102512.64
2019-01-05T07:02:05.377Z,102514.18
2019-01-05T07:05:47.417Z,102516.50
2019-01-05T07:09:26.625Z,102515.55
2019-01-05T07:12:59.575Z,102511.79
2019-01-05T07:16:42.005Z,102522.04
2019-01-05T07:20:10.978Z,102523.50
2019-01-05T07:23:52.170Z,102518.97
2019-01-05T07:27:39.668Z,102526.56
2019-01-05T07:31:14.161Z,102527.94
2019-01-05T07:35:00.819Z,102529.92
2019-01-05T07:38:13.370Z,102525.44
2019-01-05T07:42:17.557Z,102519.71
2019-01-05T07:45:46.483Z,102538.09
2019-01-05T07:49:08.735Z,102532.80
2019-01-05T07:52:34.596Z,102533.29
2019-01-05T07:56:29.214Z,102539.29
2019-01-05T08:00:04.121Z,102530.16
2019-01-05T08:03:43.388Z,102536.53
2019-01-05T08:07:21.248Z,102542.41
2019-01-05T08:11:03.897Z,102544.17
2019-01-05T08:14:32.900Z,102533.46
2019-01-05T08:18:04.639Z,102535.91
2019-01-05T08:21:34.174Z,102541.89
2019-01-05T08:25:19.362Z,102530.48
2019-01-05T08:28:58.520Z,102526.30
2019-01-05T08:32:59.310Z,102537.02
2019-01-05T08:36:34.589Z,102532.02
2019-01-05T08:40:28.589Z,102531.04
2019-01-05T08:44:30.692Z,102542.72
2019-01-05T08:48:09.114Z,102544.82
2019-01-05T08:51:44.049Z,102537.28
2019-01-05T08:55:16.315Z,102542.52
2019-01-05T08:58:55.592Z,102542.97
2019-01-05T09:02:34.619Z,102534.95
2019-01-05T09:05:58.987Z,102535.04
2019-01-05T09:09:28.457Z,102538.41
2019-01-05T09:12:52.046Z,102545.66
2019-01-05T09:16:24.757Z,102550.22
2019-01-05T09:20:07.765Z,102552.07
2019-01-05T09:23:31.378Z,102558.33
2019-01-05T09:26:59.622Z,102549.16
2019-01-05T09:30:37.677Z,102546.25
2019-01-05T09:34:19.245Z,102552.16
2019-01-05T09:38:23.896Z,102551.62
2019-01-05T09:42:11.047Z,102542.09
2019-01-05T09:45:40.294Z,102551.91
2019-01-05T09:49:05.031Z,102552.22
2019-01-05T09:52:36.739Z,102554.72
2019-01-05T09:56:00.586Z,102544.05
2019-01-05T09:59:27.394Z,102545.77
2019-01-05T10:03:08.735Z,102544.26
2019-01-05T10:06:35.674Z,102542.23
2019-01-05T10:10:32.558Z,102545.95
2019-01-05T10:14:02.532Z,102540.64
2019-01-05T10:17:37.094Z,102535.71
2019-01-05T10:21:19.710Z,102530.86
2019-01-05T10:24:56.774Z,102534.31
2019-01-05T10:28:39.612Z,102527.20
2019-01-05T10:32:09.782Z,102534.23
2019-01-05T10:35:51.760Z,102532.23
2019-01-05T10:39:18.415Z,102523.20
2019-01-05T10:42:58.043Z,102525.66
2019-01-05T10:46:24.716Z,102524.95
2019-01-05T10:50:22.600Z,102526.66
2019-01-05T10:54:22.518Z,102525.38
2019-01-05T10:57:52.958Z,102517.46
2019-01-05T11:01:42.646Z,102520.98
2019-01-05T11:05:44.792Z,102508.33
2019-01-05T11:09:49.572Z,102515.95
2019-01-05T11:13:44.225Z,102506.12
2019-01-05T11:17:12.594Z,102508.67
2019-01-05T11:20:35.850Z,102512.89
2019-01-05T11:24:25.831Z,102500.58
2019-01-05T11:28:20.940Z,102498.91
2019-01-05T11:31:47.986Z,102493.53
2019-01-05T11:38:49.799Z,102494.14
2019-01-05T11:42:11.945Z,102490.19
2019-01-05T11:45:30.881Z,102491.59
2019-01-05T11:49:33.926Z,102493.72
2019-01-05T11:53:04.641Z,102490.80
2019-01-05T11:56:58.113Z,102481.55
2019-01-05T12:00:22.965Z,102492.62
2019-01-05T12:04:30.111Z,102481.89
2019-01-05T12:08:19.386Z,102480.48
2019-01-05T12:12:15.537Z,102478.19
2019-01-05T12:15:51.003Z,102476.07
2019-01-05T12:19:25.173Z,102469.30
2019-01-05T12:23:07.003Z,102475.17
2019-01-05T12:27:03.130Z,102468.19
2019-01-05T12:30:35.591Z,102479.67
2019-01-05T12:34:14.360Z,102473.95
2019-01-05T12:37:44.696Z,102474.16
2019-01-05T12:41:11.028Z,102475.84
2019-01-05T12:48:46.516Z,102467.11
2019-01-05T12:52:12.535Z,102472.39
2019-01-05T12:55:47.849Z,102466.53
2019-01-05T12:59:35.859Z,102474.45
2019-01-05T13:03:23.688Z,102469.38
2019-01-05T13:06:51.369Z,102476.22
2019-01-05T13:10:26.434Z,102473.98
2019-01-05T13:13:55.732Z,102481.19
2019-01-05T13:17:26.284Z,102480.48
2019-01-05T13:20:42.877Z,102480.84
2019-01-05T13:24:12.031Z,102482.41
2019-01-05T13:27:57.260Z,102482.03
2019-01-05T13:31:41.422Z,102483.61
2019-01-05T13:35:14.546Z,102484.67
2019-01-05T13:38:55.508Z,102481.69
2019-01-05T13:42:31.157Z,102490.39
2019-01-05T13:46:34.955Z,102481.53
2019-01-05T13:50:12.571Z,102485.47
2019-01-05T13:53:30.256Z,102497.56
2019-01-05T13:56:58.390Z,102508.02
2019-01-05T14:00:14.094Z,102491.55
2019-01-05T14:03:11.423Z,102501.70
2019-01-05T14:06:20.270Z,102496.25
2019-01-05T14:09:16.312Z,102504.37
2019-01-05T14:12:28.631Z,102506.52
2019-01-05T14:15:23.837Z,102512.73
2019-01-05T14:18:17.561Z,102518.33
2019-01-05T14:21:14.037Z,102520.27
2019-01-05T14:23:57.269Z,102524.77
2019-01-05T14:26:50.851Z,102527.00
2019-01-05T14:29:50.753Z,102526.75
2019-01-05T14:32:47.097Z,102524.17
2019-01-05T14:35:50.388Z,102530.30
2019-01-05T14:38:54.885Z,102535.08
2019-01-05T14:41:53.810Z,102548.23
2019-01-05T14:44:52.463Z,102539.06
2019-01-05T14:47:54.351Z,102538.89
2019-01-05T14:50:48.781Z,102541.72
2019-01-05T14:53:38.445Z,102541.33
2019-01-05T14:56:32.631Z,102550.83
2019-01-05T14:59:50.360Z,102547.15
2019-01-05T15:02:52.056Z,102543.16
2019-01-05T15:05:45.397Z,102543.38
2019-01-05T15:08:38.085Z,102546.56
2019-01-05T15:11:38.235Z,102542.84
2019-01-05T15:14:41.447Z,102548.70
2019-01-05T15:17:45.376Z,102549.73
2019-01-05T15:20:45.650Z,102550.66
2019-01-05T15:23:44.916Z,102545.02
2019-01-05T15:26:47.581Z,102555.83
2019-01-05T15:30:03.369Z,102559.91
2019-01-05T15:33:11.542Z,102559.26
2019-01-05T15:36:11.594Z,102566.04
2019-01-05T15:39:01.710Z,102567.95
2019-01-05T15:42:08.577Z,102571.02
2019-01-05T15:45:03.159Z,102573.11
2019-01-05T15:47:51.986Z,102575.52
2019-01-05T15:50:56.056Z,102571.95
2019-01-05T15:54:01.628Z,102572.63
2019-01-05T15:56:56.917Z,102575.02
2019-01-05T16:00:01.881Z,102580.70
2019-01-05T16:02:58.258Z,102568.59
2019-01-05T16:05:47.299Z,102577.08
2019-01-05T16:08:41.446Z,102568.08
2019-01-05T16:11:31.654Z,102569.41
2019-01-05T16:14:21.436Z,102570.23
2019-01-05T16:17:26.970Z,102565.03
2019-01-05T16:20:33.113Z,102574.91
2019-01-05T16:23:26.623Z,102576.52
2019-01-05T16:26:17.644Z,102570.17
2019-01-05T16:29:08.267Z,102578.31
2019-01-05T16:32:11.928Z,102582.79
2019-01-05T16:35:06.540Z,102580.45
2019-01-05T16:38:09.264Z,102587.00
2019-01-05T16:41:14.101Z,102595.22
2019-01-05T16:44:12.202Z,102585.84
2019-01-05T16:47:22.771Z,102590.77
2019-01-05T16:50:18.285Z,102588.56
2019-01-05T16:53:09.308Z,102581.17
2019-01-05T16:56:04.024Z,102587.27
2019-01-05T16:59:01.349Z,102576.48
2019-01-05T17:01:52.733Z,102583.64
2019-01-05T17:04:45.063Z,102576.94
2019-01-05T17:07:57.039Z,102588.25
2019-01-05T17:10:50.145Z,102590.52
2019-01-05T17:13:40.994Z,102590.80
2019-01-05T17:16:38.866Z,102584.58
2019-01-05T17:19:36.692Z,102589.54
2019-01-05T17:22:31.366Z,102595.83
2019-01-05T17:25:18.290Z,102599.37
2019-01-05T17:28:19.992Z,102589.89
2019-01-05T17:31:18.833Z,102596.44
2019-01-05T17:34:09.341Z,102602.91
2019-01-05T17:37:05.240Z,102602.16
2019-01-05T17:40:07.961Z,102603.72
2019-01-05T17:43:10.819Z,102597.42
2019-01-05T17:46:18.849Z,102593.72
2019-01-05T17:49:24.495Z,102601.45
2019-01-05T17:52:23.304Z,102606.91
2019-01-05T17:55:16.132Z,102597.14
2019-01-05T17:58:20.341Z,102599.00
2019-01-05T18:01:13.697Z,102593.91
2019-01-05T18:04:14.446Z,102600.86
2019-01-05T18:07:11.663Z,102591.05
2019-01-05T18:13:16.769Z,102585.81
2019-01-05T18:16:07.210Z,102586.80
2019-01-05T18:18:51.214Z,102592.92
2019-01-05T18:21:53.014Z,102587.67
2019-01-05T18:24:39.491Z,102589.30
2019-01-05T18:27:31.322Z,102594.66
2019-01-05T18:30:29.622Z,102589.75
2019-01-05T18:33:29.136Z,102597.66
2019-01-05T18:36:20.667Z,102591.30
2019-01-05T18:39:30.711Z,102603.48
2019-01-05T18:42:22.551Z,102601.91
2019-01-05T18:45:18.555Z,102598.70
2019-01-05T18:48:10.150Z,102592.22
2019-01-05T18:51:15.312Z,102598.92
2019-01-05T18:54:08.094Z,102598.88
2019-01-05T18:57:02.526Z,102596.64
2019-01-05T19:00:01.226Z,102588.89
2019-01-05T19:02:57.816Z,102596.48
2019-01-05T19:05:50.694Z,102593.16
2019-01-05T19:08:45.712Z,102586.59
2019-01-05T19:11:51.625Z,102590.99
2019-01-05T19:15:03.853Z,102590.75
2019-01-05T19:17:59.201Z,102598.83
2019-01-05T19:20:54.996Z,102590.75
2019-01-05T19:24:06.076Z,102599.31
2019-01-05T19:27:02.410Z,102594.78
2019-01-05T19:30:01.740Z,102605.80
2019-01-05T19:33:00.944Z,102598.55
2019-01-05T19:36:09.160Z,102599.55
2019-01-05T19:39:06.631Z,102601.28
2019-01-05T19:42:05.350Z,102591.09
2019-01-05T19:45:05.717Z,102593.91
2019-01-05T19:48:04.311Z,102599.97
2019-01-05T19:50:58.322Z,102604.73
2019-01-05T19:54:10.165Z,102604.75
2019-01-05T19:57:02.486Z,102605.59
2019-01-05T20:00:02.363Z,102614.58
2019-01-05T20:03:04.792Z,102619.20
2019-01-05T20:05:57.849Z,102617.34
2019-01-05T20:09:02.807Z,102623.18
2019-01-05T20:12:14.723Z,102629.53
2019-01-05T20:15:24.457Z,102628.89
2019-01-05T20:18:22.904Z,102623.49
2019-01-05T20:21:21.923Z,102623.89
2019-01-05T20:24:22.843Z,102619.06
2019-01-05T20:27:17.260Z,102618.02
2019-01-05T20:30:12.174Z,102626.73
2019-01-05T20:33:01.368Z,102631.59
2019-01-05T20:35:55.821Z,102630.41
2019-01-05T20:38:58.138Z,102635.81
2019-01-05T20:42:10.037Z,102623.63
2019-01-05T20:45:09.703Z,102624.62
2019-01-05T20:48:07.440Z,102628.36
2019-01-05T20:50:59.392Z,102635.84
2019-01-05T20:53:50.835Z,102629.81
2019-01-05T20:56:53.218Z,102635.81
2019-01-05T20:59:47.968Z,102639.02
2019-01-05T21:02:39.407Z,102643.68
2019-01-05T21:05:29.939Z,102641.45
2019-01-05T21:08:30.296Z,102639.11
2019-01-05T21:11:37.825Z,102638.86
2019-01-05T21:14:30.220Z,102636.22
2019-01-05T21:17:35.690Z,102639.72
2019-01-05T21:20:29.428Z,102640.13
2019-01-05T21:23:22.198Z,102648.05
2019-01-05T21:26:24.461Z,102647.24
2019-01-05T21:29:13.617Z,102633.58
2019-01-05T21:32:13.122Z,102629.16
2019-01-05T21:35:03.024Z,102621.95
2019-01-05T21:38:03.285Z,102623.30
2019-01-05T21:41:08.552Z,102614.19
2019-01-05T21:43:57.845Z,102615.73
2019-01-05T21:47:06.590Z,102610.98
2019-01-05T21:50:17.058Z,102602.78
2019-01-05T21:53:10.245Z,102599.30
2019-01-05T21:56:01.153Z,102602.87
2019-01-05T21:58:51.823Z,102604.54
2019-01-05T22:01:39.745Z,102602.16
2019-01-05T22:04:44.614Z,102609.42
2019-01-05T22:07:33.502Z,102616.27
2019-01-05T22:10:33.432Z,102623.17
2019-01-05T22:13:24.974Z,102614.94
2019-01-05T22:16:26.406Z,102624.33
2019-01-05T22:19:21.430Z,102620.87
2019-01-05T22:22:10.734Z,102625.99
2019-01-05T22:25:00.401Z,102622.71
2019-01-05T22:28:14.188Z,102627.00
2019-01-05T22:31:04.742Z,102619.77
2019-01-05T22:34:06.832Z,102625.83
2019-01-05T22:37:19.052Z,102623.61
2019-01-05T22:40:19.560Z,102616.80
2019-01-05T22:43:16.040Z,102622.72
2019-01-05T22:46:16.936Z,102618.06
2019-01-05T22:49:11.770Z,102623.66
2019-01-05T22:52:15.277Z,102613.11
2019-01-05T22:55:16.462Z,102625.48
2019-01-05T22:58:10.257Z,102626.27
2019-01-05T23:01:17.030Z,102628.23
2019-01-05T23:04:08.069Z,102633.52
2019-01-05T23:07:10.198Z,102630.28
2019-01-05T23:10:05.003Z,102630.39
2019-01-05T23:13:19.895Z,102625.14
2019-01-05T23:16:19.072Z,102617.52
2019-01-05T23:19:09.329Z,102623.58
2019-01-05T23:22:19.324Z,102619.67
2019-01-05T23:25:11.056Z,102618.83
2019-01-05T23:28:15.047Z,102616.87
2019-01-05T23:31:25.142Z,102626.54
2019-01-05T23:34:28.384Z,102626.19
2019-01-05T23:37:20.080Z,102632.69
2019-01-05T23:40:32.643Z,102630.75
2019-01-05T23:43:25.243Z,102625.43
2019-01-05T23:46:22.965Z,102630.42
2019-01-05T23:49:19.748Z,102620.58
2019-01-05T23:52:18.591Z,102634.33
2019-01-05T23:55:14.432Z,102626.66
2019-01-05T23:58:09.826Z,102628.53
